Bismarck Municipal Airport
KBIS : now visible

Airfield :











YOU CAN JOIN US ON...

 
LOGIN :

Register | Disclaimer

   EN    FR    IT 

 









Legend :    VFR   Marginal VFR   IFR   Intensive IFR   Very Intensive IFR
Visi :
Ceiling :
>= 8 km
>= 3000ft
5 to 8 km
1000 to 3000 ft
1500m to 5 km
500 to 1000 ft
800 to 1500m
200 to 500 ft
< 800m
< 200 ft
Symbols :   Thunderstorms  Fog  Heavy snow  Heavy precipitations  Wind > 20 kt







- Airport Elevation : 1661 ft
- IATA code : BIS


KBIS - Bismarck Municipal

CURRENT METAR :
  • 212052Z 32008KT 10SM SCT019 BKN032 OVC038 18/13 A2974 RMK AO2 SLP068 T01780133 51013

EXPIRED METARs :
  • 212037Z 31008KT 10SM FEW019 BKN030 OVC055 18/13 A2974 RMK AO2 T01780133
  • 211952Z AUTO 29009KT 10SM OVC023 17/12 A2974 RMK AO2 SLP067 T01720122
  • 211911Z 31011KT 10SM BKN025 BKN032 OVC039 18/13 A2972 RMK AO2 T01780133
  • 211852Z 31012KT 10SM SCT022 BKN034 OVC044 17/13 A2972 RMK AO2 WSHFT 1805 SLP060 T01720133
  • 211825Z 31011KT 10SM FEW021 SCT036 BKN043 18/13 A2970 RMK AO2 WSHFT 1805 LTG DSNT NE T01830133

TAF KBIS
Valid from the 21 at 21:00 until the 22 at 18:00 UTC


212058Z 2121/2218 32014KT P6SM VCSH SCT020 BKN035
TEMPO 2121/2123 BKN020
FM212300 31015G25KT P6SM BKN035
FM220300 27007KT P6SM SCT100
No reported NOTAMs for that airfield.



MET'MAP, your aeronautical weather chart ! - Copyright ORBIFLY December 2007 - Disclaimer

ORBIFLY MET'MAP TEAM :

Programming & Development : Alexandra Zaïnal
Concept & Development : Baudouin d'Aumeries
Co-Development & Prog : Marc-Olivier Méhu
Technical & hardware support : Manuel Goepfert

Contact : metmap@orbifly.com




SOURCES & CREDITS :

   NOAA       Earth
Advisory